METAR Data
IDs: Format: Raw Decoded Include TAF

Data at: 1053 UTC 18 Jan 2022

KGJT 180953Z AUTO 00000KT 10SM CLR M04/M07 A3005 RMK AO2 SLP194 T10391067
KGJT 180853Z AUTO 07004KT 10SM CLR M05/M07 A3005 RMK AO2 SLP195 T10501072 56007
KGJT 180753Z AUTO 09003KT 10SM CLR M05/M07 A3006 RMK AO2 SLP195 T10501072
KGJT 180653Z AUTO 08003KT 10SM CLR M05/M07 A3007 RMK AO2 SLP198 T10501072 400281083
KGJT 180553Z AUTO 00000KT 10SM CLR M04/M07 A3008 RMK AO2 SLP204 T10441067 10000 21044 56003
KGJT 180453Z AUTO 00000KT 10SM CLR M03/M06 A3008 RMK AO2 SLP207 T10281056
KGJT 180353Z 05004KT 10SM CLR M03/M06 A3008 RMK AO2 SLP213 T10281056
KGJT 180253Z 06004KT 10SM CLR M02/M05 A3009 RMK AO2 SLP218 T10171050 53001
KGJT 180153Z 35003KT 10SM CLR M02/M05 A3008 RMK AO2 SLP220 T10221050
KGJT 180053Z 30003KT 10SM CLR M01/M05 A3008 RMK AO2 SLP215 T10111050
KGJT 172353Z 29004KT 10SM CLR 00/M04 A3008 RMK AO2 SLP211 T00001044 10028 21006 58004
KGJT 172253Z 32006KT 10SM CLR 01/M04 A3009 RMK AO2 SLP212 T00061039
KGJT 172153Z 31008KT 10SM CLR 02/M04 A3010 RMK AO2 SLP209 T00171044
KGJT 172053Z 30006KT 10SM CLR 02/M04 A3010 RMK AO2 SLP214 T00171044 58033
KGJT 171953Z 35003KT 10SM CLR 02/M07 A3015 RMK AO2 SLP228 T00221067
KGJT 171853Z 04004KT 10SM CLR 02/M07 A3017 RMK AO2 SLP230 T00221072
KGJT 171753Z 09003KT 10SM CLR 01/M08 A3021 RMK AO2 SLP247 T00061078 10006 21083 50002
KGJT 171653Z 10006KT 10SM CLR M02/M08 A3021 RMK AO2 SLP254 T10171078
KGJT 171553Z 00000KT 10SM CLR M04/M08 A3021 RMK AO2 SLP260 T10441083
KGJT 171453Z 11003KT 10SM CLR M06/M09 A3020 RMK AO2 SLP260 T10611089 53002
KGJT 171353Z 07003KT 10SM CLR M08/M10 A3019 RMK AO2 SLP260 T10781100
KGJT 171253Z 11004KT 10SM CLR M07/M09 A3019 RMK AO2 SLP248 T10671094
KGJT 171153Z AUTO 00000KT 10SM CLR M06/M09 A3019 RMK AO2 SLP247 T10611089 11028 21072 58007
KGJT 171053Z AUTO 12004KT 10SM CLR M07/M09 A3020 RMK AO2 SLP248 T10671089
KGJT 170953Z AUTO 07003KT 10SM CLR M04/M08 A3021 RMK AO2 SLP249 T10441083
KGJT 170853Z AUTO 09006KT 10SM CLR M06/M08 A3022 RMK AO2 SLP250 T10611083 58005
KGJT 170753Z AUTO 00000KT 10SM CLR M06/M08 A3022 RMK AO2 SLP253 T10561078
KGJT 170653Z AUTO 09004KT 10SM CLR M03/M07 A3023 RMK AO2 SLP253 T10281072 400391083
KGJT 170553Z AUTO 07004KT 10SM CLR M03/M06 A3023 RMK AO2 SLP256 T10331061 10017 21050 58001
KGJT 170453Z AUTO 08003KT 10SM CLR M03/M06 A3024 RMK AO2 SLP265 T10331061
KGJT 170353Z 04005KT 10SM CLR M03/M06 A3024 RMK AO2 SLP271 T10281056
KGJT 170253Z 00000KT 10SM CLR M03/M05 A3024 RMK AO2 SLP276 T10281050 50007
KGJT 170153Z 00000KT 10SM CLR M02/M04 A3024 RMK AO2 SLP277 T10221044
KGJT 170053Z 34004KT 10SM CLR 01/M04 A3022 RMK AO2 SLP263 T00061044
KGJT 162353Z 31004KT 10SM CLR 02/M05 A3021 RMK AO2 SLP257 T00171050 10039 20006 57010